Time;durP1;ratioP1;P1;durP2;ratioP2;P2;SDS_P1;SDS_P2;PMS_P1;PMS_P2;Temp;Humidity;BMP_temperature;BMP_pressure;BME280_temperature;BME280_humidity;BME280_pressure;Samples;Min_cycle;Max_cycle;Signal;HPM_P1;HPM_P2
2023/05/25 00:01:11;;;;;;;0.10;0.10;;;10.50;99.90;;;;;;5070580;28;20181;-81
2023/05/25 00:03:39;;;;;;;0.10;0.10;;;10.50;99.90;;;;;;5072562;28;20200;-80
2023/05/25 00:06:06;;;;;;;0.10;0.10;;;10.50;99.90;;;;;;5072324;28;20243;-80
2023/05/25 00:08:31;;;;;;;0.20;0.20;;;10.50;99.90;;;;;;5072608;28;20970;-81
2023/05/25 00:10:57;;;;;;;0.10;0.10;;;10.50;99.90;;;;;;5072181;28;20177;-81
2023/05/25 00:13:22;;;;;;;0.10;0.10;;;10.50;99.90;;;;;;5071283;28;20177;-80
2023/05/25 00:15:48;;;;;;;0.10;0.10;;;10.50;99.90;;;;;;5075400;28;20309;-80
2023/05/25 00:18:14;;;;;;;0.10;0.10;;;10.50;99.90;;;;;;5070463;28;21279;-81
2023/05/25 00:20:39;;;;;;;0.10;0.10;;;10.40;99.90;;;;;;5070153;28;20499;-82
2023/05/25 00:23:05;;;;;;;0.10;0.10;;;10.40;99.90;;;;;;5071256;28;20188;-81
2023/05/25 00:25:30;;;;;;;0.10;0.10;;;10.40;99.90;;;;;;5073402;28;20181;-81
2023/05/25 00:27:56;;;;;;;0.10;0.10;;;10.40;99.90;;;;;;5072854;28;20242;-81
2023/05/25 00:30:22;;;;;;;0.10;0.10;;;10.30;99.90;;;;;;5071470;28;20270;-83
2023/05/25 00:32:47;;;;;;;0.10;0.10;;;10.40;99.90;;;;;;5072500;28;20215;-80
2023/05/25 00:35:13;;;;;;;0.07;0.07;;;10.30;99.90;;;;;;5069890;28;20189;-81
2023/05/25 00:37:38;;;;;;;0.10;0.10;;;10.30;99.90;;;;;;5071142;28;20303;-81
2023/05/25 00:40:09;;;;;;;0.10;0.10;;;10.30;99.90;;;;;;5070667;28;20618;-81
2023/05/25 00:42:37;;;;;;;0.10;0.10;;;10.30;99.90;;;;;;5071180;28;20202;-80
2023/05/25 00:45:03;;;;;;;0.10;0.10;;;10.30;99.90;;;;;;5069350;28;20188;-81
2023/05/25 00:47:30;;;;;;;0.10;0.10;;;10.30;99.90;;;;;;5072521;28;20299;-81
2023/05/25 00:49:56;;;;;;;0.10;0.10;;;10.30;99.90;;;;;;5069202;28;21042;-81
2023/05/25 00:52:22;;;;;;;0.10;0.10;;;10.30;99.90;;;;;;5071395;28;20188;-81
2023/05/25 00:54:51;;;;;;;0.10;0.10;;;10.30;99.90;;;;;;5072272;28;20208;-83
2023/05/25 00:57:19;;;;;;;0.10;0.10;;;10.30;99.90;;;;;;5071833;28;21324;-83
2023/05/25 00:59:50;;;;;;;0.10;0.10;;;10.20;99.90;;;;;;5072195;28;20249;-81
2023/05/25 01:02:18;;;;;;;0.10;0.10;;;10.20;99.90;;;;;;5069628;28;20200;-83
2023/05/25 01:04:51;;;;;;;0.10;0.10;;;10.30;99.90;;;;;;5068573;28;20264;-81
2023/05/25 01:07:21;;;;;;;0.10;0.10;;;10.20;99.90;;;;;;5069694;28;20358;-81
2023/05/25 01:09:49;;;;;;;0.10;0.10;;;10.20;99.90;;;;;;5072450;28;20363;-81
2023/05/25 01:12:16;;;;;;;0.10;0.10;;;10.20;99.90;;;;;;5072668;28;20262;-82
2023/05/25 01:14:42;;;;;;;0.10;0.10;;;10.20;99.90;;;;;;5070435;28;20658;-80
2023/05/25 01:17:09;;;;;;;0.00;0.00;;;10.10;99.90;;;;;;5069742;28;20218;-80
2023/05/25 01:19:37;;;;;;;0.10;0.10;;;10.10;99.90;;;;;;5069661;28;20701;-80
2023/05/25 01:22:02;;;;;;;0.10;0.10;;;10.10;99.90;;;;;;5070959;28;20997;-82
2023/05/25 01:24:45;;;;;;;0.03;0.03;;;10.10;99.90;;;;;;5071603;28;20187;-81
2023/05/25 01:27:31;;;;;;;0.10;0.10;;;10.10;99.90;;;;;;5070211;28;20239;-81
2023/05/25 01:29:58;;;;;;;0.10;0.10;;;10.10;99.90;;;;;;5071605;28;20873;-81
2023/05/25 01:32:24;;;;;;;0.10;0.10;;;10.10;99.90;;;;;;5072740;28;20281;-82
2023/05/25 01:34:51;;;;;;;0.10;0.10;;;10.10;99.90;;;;;;5074016;28;20276;-81
2023/05/25 01:37:18;;;;;;;0.10;0.10;;;10.10;99.90;;;;;;5074171;28;20350;-81
2023/05/25 01:39:44;;;;;;;0.00;0.00;;;10.10;99.90;;;;;;5075236;28;20193;-81
2023/05/25 01:42:10;;;;;;;0.10;0.10;;;10.10;99.90;;;;;;5076401;28;20188;-81
2023/05/25 01:44:37;;;;;;;0.10;0.10;;;10.10;99.90;;;;;;5075580;28;20184;-81
2023/05/25 01:47:31;;;;;;;0.10;0.10;;;10.10;99.90;;;;;;5073283;28;20212;-81
2023/05/25 01:50:14;;;;;;;0.10;0.10;;;10.10;99.90;;;;;;5076469;28;20208;-81
2023/05/25 01:52:55;;;;;;;0.10;0.10;;;10.10;99.90;;;;;;5074516;28;20601;-81
2023/05/25 01:55:22;;;;;;;0.10;0.10;;;10.00;99.90;;;;;;5074745;28;20699;-81
2023/05/25 01:57:56;;;;;;;0.07;0.07;;;10.00;99.90;;;;;;5072922;28;20190;-81
2023/05/25 02:00:26;;;;;;;0.10;0.10;;;10.00;99.90;;;;;;5073271;28;20641;-82
2023/05/25 02:02:53;;;;;;;0.00;0.00;;;9.90;99.90;;;;;;5074750;28;20280;-81
2023/05/25 02:05:20;;;;;;;0.10;0.10;;;9.90;99.90;;;;;;5075307;28;20173;-80
2023/05/25 02:07:45;;;;;;;0.10;0.10;;;9.90;99.90;;;;;;5083680;28;20209;-80
2023/05/25 02:10:11;;;;;;;0.10;0.10;;;9.80;99.90;;;;;;5087345;28;20200;-84
2023/05/25 02:12:37;;;;;;;0.00;0.00;;;9.80;99.90;;;;;;5094671;28;20545;-84
2023/05/25 02:15:03;;;;;;;0.10;0.10;;;9.80;99.90;;;;;;5085806;28;20245;-84
2023/05/25 02:17:29;;;;;;;0.10;0.10;;;9.80;99.90;;;;;;5078277;28;20211;-80
2023/05/25 02:19:54;;;;;;;0.10;0.10;;;9.80;99.90;;;;;;5076071;28;20298;-82
2023/05/25 02:22:20;;;;;;;0.10;0.10;;;9.80;99.90;;;;;;5077253;28;20196;-81
2023/05/25 02:24:46;;;;;;;0.00;0.00;;;9.80;99.90;;;;;;5075939;28;20649;-81
2023/05/25 02:27:12;;;;;;;0.10;0.10;;;9.80;99.90;;;;;;5075432;28;20217;-83
2023/05/25 02:29:38;;;;;;;0.10;0.10;;;9.80;99.90;;;;;;5075418;28;20210;-80
2023/05/25 02:32:04;;;;;;;0.00;0.00;;;9.80;99.90;;;;;;5074619;28;20875;-80
2023/05/25 02:34:29;;;;;;;0.10;0.10;;;9.80;99.90;;;;;;5075846;28;20215;-80
2023/05/25 02:36:55;;;;;;;0.10;0.10;;;9.80;99.90;;;;;;5073306;28;20209;-81
2023/05/25 02:39:20;;;;;;;0.10;0.10;;;9.80;99.90;;;;;;5075347;28;20191;-81
2023/05/25 02:41:46;;;;;;;0.07;0.07;;;9.70;99.90;;;;;;5073589;28;20188;-81
2023/05/25 02:44:11;;;;;;;0.10;0.10;;;9.60;99.90;;;;;;5074316;28;20227;-80
2023/05/25 02:46:37;;;;;;;0.10;0.10;;;9.60;99.90;;;;;;5073347;28;20240;-80
2023/05/25 02:49:02;;;;;;;0.10;0.10;;;9.60;99.90;;;;;;5074605;28;20180;-81
2023/05/25 02:51:28;;;;;;;0.10;0.10;;;9.60;99.90;;;;;;5075117;28;20647;-81
2023/05/25 02:53:54;;;;;;;0.10;0.10;;;9.60;99.90;;;;;;5072956;28;20257;-81
2023/05/25 02:56:21;;;;;;;0.10;0.10;;;9.60;99.90;;;;;;5073592;28;20208;-81
2023/05/25 02:58:47;;;;;;;0.10;0.10;;;9.60;99.90;;;;;;5074372;28;20229;-80
2023/05/25 03:01:17;;;;;;;0.10;0.10;;;9.50;99.90;;;;;;5071926;28;20217;-82
2023/05/25 03:03:43;;;;;;;0.10;0.10;;;9.50;99.90;;;;;;5072269;28;20303;-83
2023/05/25 03:06:09;;;;;;;0.10;0.10;;;9.50;99.90;;;;;;5070929;28;20258;-81
2023/05/25 03:08:35;;;;;;;0.10;0.10;;;9.50;99.90;;;;;;5073201;28;20677;-81
2023/05/25 03:11:00;;;;;;;0.03;0.03;;;9.50;99.90;;;;;;5073092;28;20661;-81
2023/05/25 03:13:26;;;;;;;0.10;0.10;;;9.40;99.90;;;;;;5074647;28;20183;-81
2023/05/25 03:15:51;;;;;;;0.03;0.03;;;9.40;99.90;;;;;;5073937;28;20196;-80
2023/05/25 03:18:17;;;;;;;0.10;0.10;;;9.40;99.90;;;;;;5071430;28;20195;-81
2023/05/25 03:20:42;;;;;;;0.00;0.00;;;9.40;99.90;;;;;;5072341;28;20187;-81
2023/05/25 03:23:08;;;;;;;0.00;0.00;;;9.40;99.90;;;;;;5073577;28;20180;-81
2023/05/25 03:25:33;;;;;;;0.10;0.10;;;9.40;99.90;;;;;;5073161;28;20184;-82
2023/05/25 03:27:59;;;;;;;0.10;0.10;;;9.40;99.90;;;;;;5072255;28;20214;-83
2023/05/25 03:30:24;;;;;;;0.10;0.10;;;9.40;99.90;;;;;;5072114;28;20654;-83
2023/05/25 03:32:51;;;;;;;0.30;0.30;;;9.40;99.90;;;;;;5072632;28;20207;-83
2023/05/25 03:35:16;;;;;;;0.10;0.10;;;9.50;99.90;;;;;;5073513;28;20188;-81
2023/05/25 03:37:42;;;;;;;0.10;0.10;;;9.40;99.90;;;;;;5073830;28;20212;-81
2023/05/25 03:40:11;;;;;;;0.10;0.10;;;9.50;99.90;;;;;;5069612;28;20184;-80
2023/05/25 03:42:37;;;;;;;0.10;0.10;;;9.50;99.90;;;;;;5072431;28;20196;-82
2023/05/25 03:45:03;;;;;;;0.10;0.10;;;9.50;99.90;;;;;;5073394;28;20658;-81
2023/05/25 03:47:28;;;;;;;0.00;0.00;;;9.70;99.90;;;;;;5072945;28;20226;-81
2023/05/25 03:49:54;;;;;;;0.10;0.10;;;10.00;99.90;;;;;;5068894;28;20184;-82
2023/05/25 03:52:19;;;;;;;0.10;0.10;;;10.10;99.90;;;;;;5068952;28;20228;-82
2023/05/25 03:54:45;;;;;;;0.10;0.10;;;10.30;99.90;;;;;;5070725;28;20189;-82
2023/05/25 03:57:10;;;;;;;0.10;0.10;;;10.50;99.90;;;;;;5069581;28;20224;-81
2023/05/25 03:59:36;;;;;;;0.10;0.10;;;10.60;99.90;;;;;;5072995;28;20185;-81
2023/05/25 04:02:01;;;;;;;0.10;0.10;;;10.80;99.90;;;;;;5074277;28;20184;-81
2023/05/25 04:04:28;;;;;;;0.10;0.10;;;11.00;99.90;;;;;;5073249;28;20219;-81
2023/05/25 04:06:54;;;;;;;3.70;2.03;;;11.00;99.90;;;;;;5072287;28;20638;-81
2023/05/25 04:09:19;;;;;;;0.10;0.10;;;11.30;99.90;;;;;;5070739;28;20267;-83
2023/05/25 04:11:45;;;;;;;0.10;0.10;;;11.50;99.90;;;;;;5072003;28;20254;-81
2023/05/25 04:14:11;;;;;;;0.10;0.10;;;11.50;99.90;;;;;;5072454;28;20189;-81
2023/05/25 04:16:39;;;;;;;0.10;0.10;;;11.30;99.90;;;;;;5074290;28;20291;-81
2023/05/25 04:19:05;;;;;;;0.10;0.10;;;11.10;99.90;;;;;;5069716;28;20558;-81
2023/05/25 04:21:31;;;;;;;0.10;0.10;;;11.10;99.90;;;;;;5068697;28;20193;-80
2023/05/25 04:23:56;;;;;;;0.10;0.10;;;11.10;99.90;;;;;;5073189;28;20548;-81
2023/05/25 04:26:23;;;;;;;0.10;0.10;;;11.00;99.90;;;;;;5068997;28;20270;-80
2023/05/25 04:28:49;;;;;;;0.10;0.10;;;11.00;99.90;;;;;;5074032;28;20185;-81
2023/05/25 04:31:14;;;;;;;0.10;0.10;;;11.00;99.90;;;;;;5073738;28;20223;-81
2023/05/25 04:33:40;;;;;;;0.10;0.10;;;11.10;99.90;;;;;;5059560;28;20188;-81
2023/05/25 04:36:07;;;;;;;0.10;0.10;;;11.00;99.90;;;;;;5071052;28;20211;-80
2023/05/25 04:38:33;;;;;;;0.10;0.10;;;11.00;99.90;;;;;;5075458;28;20172;-81
2023/05/25 04:41:01;;;;;;;0.10;0.10;;;11.10;99.90;;;;;;5072145;28;20688;-82
2023/05/25 04:43:28;;;;;;;0.10;0.10;;;11.10;99.90;;;;;;5075626;28;20678;-82
2023/05/25 04:45:58;;;;;;;0.00;0.00;;;11.20;99.90;;;;;;5075354;28;20192;-81
2023/05/25 04:48:24;;;;;;;0.10;0.10;;;11.10;99.90;;;;;;5090866;28;20181;-82
2023/05/25 04:50:51;;;;;;;0.10;0.10;;;11.20;99.90;;;;;;5068667;28;20185;-82
2023/05/25 04:53:17;;;;;;;0.10;0.10;;;11.20;99.90;;;;;;5075917;28;20186;-83
2023/05/25 04:55:42;;;;;;;0.10;0.10;;;11.20;99.90;;;;;;5071502;28;20204;-82
2023/05/25 04:58:08;;;;;;;0.10;0.10;;;11.30;99.90;;;;;;5071399;28;20249;-81
2023/05/25 05:00:34;;;;;;;0.00;0.00;;;11.40;99.90;;;;;;5070956;28;20268;-81
2023/05/25 05:02:59;;;;;;;0.10;0.10;;;11.40;99.90;;;;;;5072099;28;20717;-81
2023/05/25 05:05:25;;;;;;;0.10;0.10;;;11.50;99.90;;;;;;5074627;28;20192;-81
2023/05/25 05:07:52;;;;;;;0.10;0.10;;;11.60;99.90;;;;;;5075275;28;20240;-81
2023/05/25 05:10:18;;;;;;;0.00;0.00;;;11.60;99.90;;;;;;5074269;28;20259;-81
2023/05/25 05:12:43;;;;;;;0.10;0.10;;;11.70;99.90;;;;;;5076375;28;20272;-82
2023/05/25 05:15:09;;;;;;;0.10;0.10;;;11.70;99.90;;;;;;5072991;28;20291;-82
2023/05/25 05:17:35;;;;;;;0.10;0.10;;;11.80;99.90;;;;;;5078382;28;20577;-85
2023/05/25 05:20:01;;;;;;;0.10;0.10;;;11.80;99.90;;;;;;5073510;28;20213;-85
2023/05/25 05:22:26;;;;;;;0.10;0.10;;;11.90;99.90;;;;;;5075132;28;20220;-84
2023/05/25 05:24:52;;;;;;;0.10;0.10;;;11.90;99.90;;;;;;5077735;28;20181;-83
2023/05/25 05:27:18;;;;;;;0.10;0.10;;;12.00;99.90;;;;;;5071083;28;20219;-83
2023/05/25 05:29:43;;;;;;;0.10;0.10;;;12.10;99.90;;;;;;5079137;28;20173;-81
2023/05/25 05:32:09;;;;;;;0.10;0.10;;;12.20;99.90;;;;;;5074830;28;20173;-81
2023/05/25 05:34:35;;;;;;;0.10;0.10;;;12.30;99.90;;;;;;5080144;28;20184;-81
2023/05/25 05:37:00;;;;;;;0.10;0.10;;;12.30;99.90;;;;;;5083165;28;20196;-81
2023/05/25 05:39:26;;;;;;;0.10;0.10;;;12.40;99.90;;;;;;5078202;28;21335;-82
2023/05/25 05:41:52;;;;;;;0.10;0.10;;;12.40;99.90;;;;;;5074399;28;20188;-82
2023/05/25 05:44:20;;;;;;;0.00;0.00;;;12.60;99.90;;;;;;5073836;28;20182;-81
2023/05/25 05:46:46;;;;;;;0.10;0.10;;;12.70;99.90;;;;;;5072033;28;20298;-82
2023/05/25 05:49:11;;;;;;;0.00;0.00;;;12.70;99.90;;;;;;5075612;28;20271;-82
2023/05/25 05:51:37;;;;;;;0.10;0.10;;;12.60;99.90;;;;;;5072217;28;20194;-82
2023/05/25 05:54:03;;;;;;;0.10;0.10;;;12.80;99.90;;;;;;5074556;28;20209;-82
2023/05/25 05:56:28;;;;;;;0.10;0.10;;;12.80;99.90;;;;;;5073656;28;20204;-83
2023/05/25 05:58:54;;;;;;;0.10;0.10;;;12.90;99.90;;;;;;5076162;28;20277;-82
2023/05/25 06:01:20;;;;;;;0.00;0.00;;;13.10;99.90;;;;;;5074424;28;20310;-82
2023/05/25 06:03:47;;;;;;;0.10;0.10;;;13.10;99.90;;;;;;5073003;28;20275;-81
2023/05/25 06:06:13;;;;;;;0.10;0.10;;;13.30;99.90;;;;;;5081285;28;20208;-84
2023/05/25 06:08:40;;;;;;;0.10;0.10;;;13.40;99.90;;;;;;5070366;28;20192;-83
2023/05/25 06:11:05;;;;;;;0.10;0.10;;;13.50;99.90;;;;;;5069250;28;20184;-82
2023/05/25 06:13:31;;;;;;;0.10;0.10;;;13.60;99.90;;;;;;5074027;28;20678;-82
2023/05/25 06:15:57;;;;;;;0.10;0.10;;;13.40;99.90;;;;;;5075403;28;20207;-83
2023/05/25 06:18:22;;;;;;;0.10;0.10;;;13.40;99.90;;;;;;5072604;28;20517;-82
2023/05/25 06:20:48;;;;;;;0.10;0.10;;;13.70;99.90;;;;;;5072926;28;20190;-81
2023/05/25 06:23:13;;;;;;;0.10;0.10;;;13.70;99.90;;;;;;5072528;28;20190;-82
2023/05/25 06:25:39;;;;;;;0.10;0.10;;;14.00;99.90;;;;;;5075489;28;20237;-83
2023/05/25 06:28:05;;;;;;;0.10;0.10;;;13.90;99.90;;;;;;5074491;28;20202;-83
2023/05/25 06:30:30;;;;;;;0.10;0.10;;;14.00;99.90;;;;;;5074572;28;20182;-83
2023/05/25 06:32:56;;;;;;;0.10;0.10;;;14.00;99.90;;;;;;5075998;28;20181;-83
2023/05/25 06:35:22;;;;;;;0.10;0.10;;;14.10;99.90;;;;;;5091831;28;20266;-82
2023/05/25 06:37:48;;;;;;;0.10;0.10;;;14.10;99.90;;;;;;5074340;28;20601;-83
2023/05/25 06:40:14;;;;;;;0.10;0.10;;;14.00;99.90;;;;;;5077676;28;20183;-83
2023/05/25 06:42:41;;;;;;;0.47;0.47;;;14.10;99.90;;;;;;5075034;28;20180;-83
2023/05/25 06:45:07;;;;;;;0.10;0.10;;;14.00;99.90;;;;;;5076279;28;20184;-82
2023/05/25 06:47:33;;;;;;;0.10;0.10;;;14.00;99.90;;;;;;5074416;28;20574;-83
2023/05/25 06:49:59;;;;;;;0.10;0.10;;;14.20;99.90;;;;;;5073917;28;20193;-83
2023/05/25 06:52:27;;;;;;;0.10;0.10;;;14.40;99.90;;;;;;5074793;28;20250;-82
2023/05/25 06:54:52;;;;;;;0.10;0.10;;;14.50;99.90;;;;;;5074202;28;20602;-83
2023/05/25 06:57:18;;;;;;;3.37;1.60;;;14.70;99.90;;;;;;5076318;28;20299;-83
2023/05/25 06:59:44;;;;;;;0.10;0.10;;;14.80;99.90;;;;;;5075223;28;20279;-83
2023/05/25 07:02:09;;;;;;;0.10;0.10;;;14.60;99.90;;;;;;5072804;28;20668;-82
2023/05/25 07:04:35;;;;;;;0.10;0.10;;;14.70;99.90;;;;;;5071769;28;20285;-83
2023/05/25 07:07:00;;;;;;;0.10;0.10;;;14.40;99.90;;;;;;5073198;28;20666;-82
2023/05/25 07:09:26;;;;;;;0.10;0.10;;;14.40;99.90;;;;;;5077040;28;20200;-83
2023/05/25 07:11:51;;;;;;;0.10;0.10;;;14.40;99.90;;;;;;5075919;28;20581;-83
2023/05/25 07:14:17;;;;;;;0.10;0.10;;;14.70;99.90;;;;;;5070207;28;20203;-84
2023/05/25 07:16:43;;;;;;;0.10;0.10;;;15.10;99.90;;;;;;5070354;28;20242;-83
2023/05/25 07:19:10;;;;;;;0.10;0.10;;;15.30;99.90;;;;;;5068895;28;20641;-83
2023/05/25 07:21:36;;;;;;;0.10;0.10;;;15.10;99.90;;;;;;5071514;28;20593;-83
2023/05/25 07:24:02;;;;;;;0.10;0.10;;;15.00;99.90;;;;;;5073115;28;20310;-84
2023/05/25 07:26:29;;;;;;;0.10;0.10;;;15.10;99.90;;;;;;5068710;28;20212;-83
2023/05/25 07:28:55;;;;;;;0.10;0.10;;;15.30;99.90;;;;;;5068600;28;20185;-85
2023/05/25 07:31:21;;;;;;;0.10;0.10;;;15.50;99.90;;;;;;5066671;28;20185;-85
2023/05/25 07:33:46;;;;;;;0.10;0.10;;;15.30;99.90;;;;;;5076212;28;20228;-84
2023/05/25 07:36:12;;;;;;;0.10;0.10;;;15.40;99.90;;;;;;5077904;28;20282;-82
2023/05/25 07:38:38;;;;;;;0.10;0.10;;;15.60;99.90;;;;;;5080373;28;20662;-84
2023/05/25 07:41:03;;;;;;;0.10;0.10;;;15.70;99.90;;;;;;5077768;28;20194;-82
2023/05/25 07:43:29;;;;;;;0.10;0.10;;;15.50;99.90;;;;;;5074820;28;20197;-82
2023/05/25 07:45:54;;;;;;;0.10;0.10;;;15.80;99.90;;;;;;5074548;28;20227;-82
2023/05/25 07:48:21;;;;;;;0.10;0.10;;;16.10;99.90;;;;;;5074528;28;20212;-82
2023/05/25 07:50:47;;;;;;;0.10;0.10;;;16.40;99.90;;;;;;5076945;28;20173;-82
2023/05/25 07:53:12;;;;;;;0.10;0.10;;;16.50;99.90;;;;;;5070463;28;20195;-84
2023/05/25 07:55:38;;;;;;;0.10;0.10;;;16.40;99.90;;;;;;5067564;28;20181;-85
2023/05/25 07:58:06;;;;;;;0.10;0.10;;;16.30;99.90;;;;;;5072929;28;20195;-83
2023/05/25 08:00:32;;;;;;;0.10;0.10;;;16.40;99.90;;;;;;5071600;28;20221;-84
2023/05/25 08:02:57;;;;;;;0.10;0.10;;;16.60;99.90;;;;;;5069336;28;20282;-85
2023/05/25 08:05:25;;;;;;;0.10;0.10;;;16.60;99.90;;;;;;5071728;28;20203;-83
2023/05/25 08:07:51;;;;;;;0.10;0.10;;;16.40;99.90;;;;;;5077108;28;20217;-83
2023/05/25 08:10:17;;;;;;;0.10;0.10;;;16.60;99.90;;;;;;5070513;28;20195;-85
2023/05/25 08:12:43;;;;;;;0.10;0.10;;;16.90;99.90;;;;;;5080794;28;20177;-83
2023/05/25 08:15:08;;;;;;;0.10;0.10;;;17.20;99.90;;;;;;5073865;28;20902;-85
2023/05/25 08:17:34;;;;;;;0.10;0.10;;;17.40;99.90;;;;;;5070122;28;20212;-84
2023/05/25 08:19:59;;;;;;;2.10;2.00;;;17.30;99.90;;;;;;5072897;28;20646;-85
2023/05/25 08:22:26;;;;;;;0.10;0.10;;;17.30;99.90;;;;;;5071558;28;20223;-84
2023/05/25 08:24:51;;;;;;;0.10;0.10;;;17.00;99.90;;;;;;5072790;28;20195;-85
2023/05/25 08:27:17;;;;;;;0.10;0.10;;;17.10;99.90;;;;;;5072767;28;20263;-85
2023/05/25 08:29:42;;;;;;;0.10;0.10;;;17.00;99.90;;;;;;5076965;28;20276;-82
2023/05/25 08:32:08;;;;;;;0.10;0.10;;;16.80;99.90;;;;;;5073202;28;20176;-82
2023/05/25 08:34:34;;;;;;;0.10;0.10;;;16.80;99.90;;;;;;5072873;28;20181;-83
2023/05/25 08:36:59;;;;;;;0.10;0.10;;;17.20;99.90;;;;;;5076129;28;20207;-83
2023/05/25 08:39:25;;;;;;;0.10;0.10;;;17.20;99.90;;;;;;5080573;28;20263;-82
2023/05/25 08:41:51;;;;;;;0.10;0.10;;;17.50;99.90;;;;;;5082937;28;20645;-83
2023/05/25 08:44:17;;;;;;;0.10;0.10;;;17.70;99.90;;;;;;5079068;28;20598;-85
2023/05/25 08:46:46;;;;;;;0.10;0.10;;;17.50;99.90;;;;;;5073983;28;20280;-85
2023/05/25 08:49:13;;;;;;;0.10;0.10;;;17.20;99.90;;;;;;5074361;28;20267;-85
2023/05/25 08:51:52;;;;;;;0.10;0.10;;;17.40;99.90;;;;;;5086751;28;20184;-83
2023/05/25 08:54:21;;;;;;;0.10;0.10;;;17.40;99.90;;;;;;5070562;28;20176;-82
2023/05/25 08:56:53;;;;;;;0.10;0.10;;;17.70;99.90;;;;;;5077172;28;20218;-84
2023/05/25 08:59:19;;;;;;;0.10;0.10;;;17.90;99.90;;;;;;5075219;28;20265;-84
2023/05/25 09:01:48;;;;;;;0.10;0.10;;;17.80;99.90;;;;;;5075797;28;20259;-84
2023/05/25 09:04:18;;;;;;;0.10;0.10;;;17.70;99.90;;;;;;5076168;28;20237;-84
2023/05/25 09:06:44;;;;;;;0.10;0.10;;;17.60;99.90;;;;;;5075312;28;20204;-84
2023/05/25 09:09:11;;;;;;;0.10;0.10;;;17.40;99.90;;;;;;5074268;28;20629;-84
2023/05/25 09:11:38;;;;;;;0.10;0.10;;;17.80;99.90;;;;;;5075061;28;20243;-84
2023/05/25 09:14:04;;;;;;;0.10;0.10;;;18.40;99.90;;;;;;5076624;28;20188;-84
2023/05/25 09:16:31;;;;;;;0.10;0.10;;;18.00;99.90;;;;;;5070260;28;20204;-84
2023/05/25 09:18:57;;;;;;;0.10;0.10;;;17.80;99.90;;;;;;5074594;28;20306;-84
2023/05/25 09:21:24;;;;;;;0.10;0.10;;;17.70;99.90;;;;;;5076019;28;20177;-84
2023/05/25 09:23:50;;;;;;;0.10;0.10;;;17.60;99.90;;;;;;5072875;28;20292;-84
2023/05/25 09:26:16;;;;;;;0.10;0.10;;;18.20;99.90;;;;;;5073033;28;20733;-84
2023/05/25 09:28:48;;;;;;;0.10;0.10;;;18.70;99.90;;;;;;5074369;28;20191;-84
2023/05/25 09:31:14;;;;;;;0.10;0.10;;;17.90;99.90;;;;;;5074124;28;20269;-84
2023/05/25 09:33:41;;;;;;;0.10;0.10;;;18.20;99.90;;;;;;5072798;28;20183;-83
2023/05/25 09:36:06;;;;;;;0.10;0.10;;;18.40;99.90;;;;;;5076979;28;20193;-83
2023/05/25 09:38:32;;;;;;;0.10;0.10;;;18.30;99.90;;;;;;5074933;28;20222;-84
2023/05/25 09:40:58;;;;;;;0.10;0.10;;;18.30;99.90;;;;;;5073858;28;20275;-84
2023/05/25 09:43:24;;;;;;;0.10;0.10;;;18.20;99.90;;;;;;5075665;28;20185;-84
2023/05/25 09:45:53;;;;;;;0.10;0.10;;;18.40;99.90;;;;;;5073506;28;20204;-84
2023/05/25 09:48:20;;;;;;;0.10;0.10;;;18.70;99.90;;;;;;5073584;28;20570;-84
2023/05/25 09:50:46;;;;;;;0.10;0.10;;;18.70;99.90;;;;;;5075743;28;20202;-84
2023/05/25 09:53:11;;;;;;;0.47;0.47;;;19.10;99.90;;;;;;5075941;28;20629;-84
2023/05/25 09:55:37;;;;;;;0.10;0.10;;;18.90;99.90;;;;;;5077180;28;20729;-84
2023/05/25 09:58:04;;;;;;;0.10;0.10;;;19.20;99.90;;;;;;5075727;28;20186;-84
2023/05/25 10:00:30;;;;;;;0.10;0.10;;;19.60;99.90;;;;;;5072728;28;20195;-84
2023/05/25 10:02:56;;;;;;;0.10;0.10;;;19.00;99.90;;;;;;5072185;28;20202;-84
2023/05/25 10:05:21;;;;;;;0.10;0.10;;;19.10;99.90;;;;;;5074752;28;20190;-85
2023/05/25 10:07:50;;;;;;;0.10;0.10;;;19.40;99.90;;;;;;5074333;28;20757;-84
2023/05/25 10:10:15;;;;;;;0.10;0.10;;;19.60;99.90;;;;;;5074613;28;20180;-84
2023/05/25 10:12:43;;;;;;;0.10;0.10;;;19.20;99.90;;;;;;5071754;28;20192;-84
2023/05/25 10:15:11;;;;;;;0.10;0.10;;;19.10;99.90;;;;;;5073783;28;20184;-84
2023/05/25 10:17:47;;;;;;;0.10;0.10;;;19.20;99.90;;;;;;5073602;28;20298;-85
2023/05/25 10:20:14;;;;;;;0.10;0.10;;;19.60;99.90;;;;;;5071434;28;20223;-84
2023/05/25 10:22:46;;;;;;;0.10;0.10;;;19.10;99.90;;;;;;5074634;28;20189;-84
2023/05/25 10:25:16;;;;;;;0.10;0.10;;;19.40;99.90;;;;;;5071108;28;20220;-85
2023/05/25 10:28:06;;;;;;;0.10;0.10;;;20.10;99.90;;;;;;5072563;28;20301;-84
2023/05/25 10:30:32;;;;;;;0.10;0.10;;;19.70;99.90;;;;;;5072228;28;20185;-84
2023/05/25 10:32:58;;;;;;;0.10;0.10;;;19.70;99.90;;;;;;5072378;28;20184;-84
2023/05/25 10:35:24;;;;;;;0.10;0.10;;;19.30;99.90;;;;;;5072470;28;20217;-84
2023/05/25 10:37:53;;;;;;;0.10;0.10;;;19.80;99.90;;;;;;5073687;28;20196;-85
2023/05/25 10:40:22;;;;;;;0.10;0.10;;;19.90;99.90;;;;;;5073365;28;20184;-83
2023/05/25 10:42:49;;;;;;;0.10;0.10;;;19.90;99.90;;;;;;5072204;28;20251;-83
2023/05/25 10:45:15;;;;;;;0.10;0.10;;;20.30;99.90;;;;;;5071661;28;20189;-83
2023/05/25 10:47:41;;;;;;;0.10;0.10;;;19.90;99.90;;;;;;5073211;28;20235;-82
2023/05/25 10:50:19;;;;;;;0.10;0.10;;;20.30;99.90;;;;;;5070926;28;21018;-83
2023/05/25 10:52:45;;;;;;;0.10;0.10;;;19.50;99.90;;;;;;5070811;28;20506;-83
2023/05/25 10:55:11;;;;;;;0.10;0.10;;;19.50;99.90;;;;;;5071081;28;20192;-83
2023/05/25 10:57:37;;;;;;;0.10;0.10;;;20.00;99.90;;;;;;5071865;28;20548;-83
2023/05/25 11:00:07;;;;;;;0.10;0.10;;;20.80;99.90;;;;;;5074774;28;20233;-82
2023/05/25 11:02:54;;;;;;;0.10;0.10;;;20.70;99.90;;;;;;5070849;28;20278;-83
2023/05/25 11:05:26;;;;;;;0.10;0.10;;;20.40;99.90;;;;;;5072117;28;20764;-83
2023/05/25 11:07:53;;;;;;;0.10;0.10;;;20.30;99.90;;;;;;5072215;28;20739;-84
2023/05/25 11:10:42;;;;;;;0.10;0.10;;;20.70;99.90;;;;;;5074574;28;20180;-84
2023/05/25 11:13:23;;;;;;;0.10;0.10;;;20.40;99.90;;;;;;5075471;28;20275;-84
2023/05/25 11:16:17;;;;;;;0.10;0.10;;;20.80;99.90;;;;;;5072888;28;20200;-82
2023/05/25 11:19:02;;;;;;;0.10;0.10;;;20.50;99.90;;;;;;5073485;28;20672;-82
2023/05/25 11:21:31;;;;;;;0.10;0.10;;;20.10;99.90;;;;;;5072393;28;20207;-83
2023/05/25 11:24:05;;;;;;;0.10;0.10;;;20.50;99.90;;;;;;5072630;28;20260;-83
2023/05/25 11:26:35;;;;;;;0.10;0.10;;;19.90;99.90;;;;;;5074625;28;20205;-83
2023/05/25 11:29:14;;;;;;;0.10;0.10;;;20.10;99.90;;;;;;5076984;28;20183;-83
2023/05/25 11:31:40;;;;;;;0.10;0.10;;;20.40;99.90;;;;;;5071332;28;20663;-83
2023/05/25 11:34:05;;;;;;;0.10;0.10;;;20.20;99.90;;;;;;5073346;28;20214;-82
2023/05/25 11:36:34;;;;;;;0.10;0.10;;;20.20;99.90;;;;;;5066403;28;20605;-83
2023/05/25 11:39:00;;;;;;;0.10;0.10;;;20.90;99.90;;;;;;5065616;28;20200;-82
2023/05/25 11:41:30;;;;;;;0.10;0.10;;;21.30;99.90;;;;;;5071252;28;20172;-83
2023/05/25 11:44:05;;;;;;;0.10;0.10;;;21.50;99.90;;;;;;5071119;28;20176;-82
2023/05/25 11:46:32;;;;;;;0.10;0.10;;;21.00;99.90;;;;;;5073119;28;20207;-83
2023/05/25 11:48:58;;;;;;;0.10;0.10;;;20.70;99.90;;;;;;5069112;28;20184;-82
2023/05/25 11:51:26;;;;;;;1.03;1.03;;;20.90;99.90;;;;;;5070352;28;20209;-82
2023/05/25 11:53:52;;;;;;;0.10;0.10;;;20.70;99.90;;;;;;5073546;28;20196;-83
2023/05/25 11:56:19;;;;;;;0.10;0.10;;;20.70;99.90;;;;;;5071532;28;20246;-83
2023/05/25 11:58:49;;;;;;;0.10;0.10;;;20.90;99.90;;;;;;5068493;28;20657;-82
2023/05/25 12:01:24;;;;;;;0.10;0.10;;;20.60;99.90;;;;;;5069455;28;20220;-83
2023/05/25 12:03:52;;;;;;;0.10;0.10;;;20.40;99.90;;;;;;5070634;28;20241;-85
2023/05/25 12:06:30;;;;;;;0.67;0.67;;;20.50;99.90;;;;;;5070437;28;20206;-82
2023/05/25 12:08:56;;;;;;;0.10;0.10;;;20.90;99.90;;;;;;5076434;28;20180;-83
2023/05/25 12:11:33;;;;;;;0.10;0.10;;;21.00;99.90;;;;;;5075250;28;20194;-82
2023/05/25 12:14:02;;;;;;;0.10;0.10;;;20.70;99.90;;;;;;5087216;28;20238;-83
2023/05/25 12:16:29;;;;;;;0.20;0.20;;;20.80;99.90;;;;;;5068207;28;20210;-83
2023/05/25 12:18:56;;;;;;;9.73;9.23;;;20.80;99.90;;;;;;5062916;28;20208;-83
2023/05/25 12:21:22;;;;;;;0.10;0.10;;;21.10;99.90;;;;;;5069903;28;20188;-83
2023/05/25 12:23:49;;;;;;;0.10;0.10;;;21.40;99.90;;;;;;5069151;28;20188;-83
2023/05/25 12:26:16;;;;;;;0.10;0.10;;;20.90;99.90;;;;;;5065978;28;20258;-84
2023/05/25 12:28:59;;;;;;;0.10;0.10;;;21.60;99.90;;;;;;5071166;28;20867;-83
2023/05/25 12:31:35;;;;;;;0.10;0.10;;;21.30;99.90;;;;;;5076529;28;20180;-84
2023/05/25 12:34:14;;;;;;;0.10;0.10;;;21.80;99.90;;;;;;5073870;28;20209;-82
2023/05/25 12:36:52;;;;;;;0.10;0.10;;;21.90;99.90;;;;;;5074287;28;20205;-83
2023/05/25 12:39:30;;;;;;;0.10;0.10;;;21.90;99.90;;;;;;5071166;28;20177;-83
2023/05/25 12:41:58;;;;;;;0.10;0.10;;;22.00;99.90;;;;;;5071694;28;20704;-84
2023/05/25 12:44:30;;;;;;;0.10;0.10;;;21.60;99.90;;;;;;5075734;28;20192;-83
2023/05/25 12:46:56;;;;;;;0.10;0.10;;;21.50;99.90;;;;;;5070111;28;20262;-82
2023/05/25 12:49:32;;;;;;;0.10;0.10;;;21.90;99.90;;;;;;5068105;28;20253;-82